sensor_id;sensor_type;location;lat;lon;timestamp;pressure;altitude;pressure_sealevel;temperature;humidity
10988;BME280;5547;42.672;23.230;2023-03-11T00:01:37;91561.66;;;7.13;100.00
10988;BME280;5547;42.672;23.230;2023-03-11T00:04:40;91535.78;;;6.57;100.00
10988;BME280;5547;42.672;23.230;2023-03-11T00:07:40;91551.16;;;6.46;100.00
10988;BME280;5547;42.672;23.230;2023-03-11T00:10:43;91571.44;;;6.36;100.00
10988;BME280;5547;42.672;23.230;2023-03-11T00:13:44;91560.84;;;6.23;100.00
10988;BME280;5547;42.672;23.230;2023-03-11T00:16:44;91560.34;;;6.28;100.00
10988;BME280;5547;42.672;23.230;2023-03-11T00:19:45;91529.66;;;6.05;100.00
10988;BME280;5547;42.672;23.230;2023-03-11T00:22:46;91558.53;;;6.25;100.00
10988;BME280;5547;42.672;23.230;2023-03-11T00:25:46;91560.03;;;6.26;100.00
10988;BME280;5547;42.672;23.230;2023-03-11T00:28:47;91539.84;;;6.32;100.00
10988;BME280;5547;42.672;23.230;2023-03-11T00:31:48;91551.66;;;6.28;100.00
10988;BME280;5547;42.672;23.230;2023-03-11T00:34:48;91561.16;;;6.25;100.00
10988;BME280;5547;42.672;23.230;2023-03-11T00:37:52;91544.59;;;6.38;100.00
10988;BME280;5547;42.672;23.230;2023-03-11T00:40:53;91530.00;;;6.20;100.00
10988;BME280;5547;42.672;23.230;2023-03-11T00:43:53;91549.03;;;6.28;100.00
10988;BME280;5547;42.672;23.230;2023-03-11T00:46:54;91511.59;;;6.04;100.00
10988;BME280;5547;42.672;23.230;2023-03-11T00:49:54;91483.97;;;5.79;100.00
10988;BME280;5547;42.672;23.230;2023-03-11T00:52:55;91517.34;;;6.15;100.00
10988;BME280;5547;42.672;23.230;2023-03-11T00:55:56;91512.59;;;6.23;100.00
10988;BME280;5547;42.672;23.230;2023-03-11T00:58:56;91471.38;;;6.00;100.00
10988;BME280;5547;42.672;23.230;2023-03-11T01:01:57;91456.88;;;5.92;100.00
10988;BME280;5547;42.672;23.230;2023-03-11T01:04:57;91473.94;;;6.16;100.00
10988;BME280;5547;42.672;23.230;2023-03-11T01:07:58;91484.84;;;6.31;100.00
10988;BME280;5547;42.672;23.230;2023-03-11T01:10:59;91481.88;;;6.42;100.00
10988;BME280;5547;42.672;23.230;2023-03-11T01:14:00;91464.56;;;6.41;100.00
10988;BME280;5547;42.672;23.230;2023-03-11T01:17:00;91480.94;;;6.61;100.00
10988;BME280;5547;42.672;23.230;2023-03-11T01:20:01;91473.00;;;6.61;100.00
10988;BME280;5547;42.672;23.230;2023-03-11T01:23:05;91426.41;;;6.42;100.00
10988;BME280;5547;42.672;23.230;2023-03-11T01:26:06;91385.34;;;6.15;100.00
10988;BME280;5547;42.672;23.230;2023-03-11T01:29:06;91434.31;;;6.67;100.00
10988;BME280;5547;42.672;23.230;2023-03-11T01:32:07;91379.84;;;6.48;100.00
10988;BME280;5547;42.672;23.230;2023-03-11T01:35:10;91399.38;;;6.63;100.00
10988;BME280;5547;42.672;23.230;2023-03-11T01:38:12;91387.63;;;6.64;100.00
10988;BME280;5547;42.672;23.230;2023-03-11T01:41:12;91384.66;;;6.62;100.00
10988;BME280;5547;42.672;23.230;2023-03-11T01:44:12;91386.78;;;6.67;100.00
10988;BME280;5547;42.672;23.230;2023-03-11T01:47:34;91381.72;;;6.60;100.00
10988;BME280;5547;42.672;23.230;2023-03-11T01:50:39;91418.47;;;6.67;100.00
10988;BME280;5547;42.672;23.230;2023-03-11T01:53:40;91434.31;;;6.67;100.00
10988;BME280;5547;42.672;23.230;2023-03-11T01:56:41;91446.38;;;6.68;100.00
10988;BME280;5547;42.672;23.230;2023-03-11T01:59:49;91445.66;;;6.55;100.00
10988;BME280;5547;42.672;23.230;2023-03-11T02:02:53;91443.84;;;6.52;100.00
10988;BME280;5547;42.672;23.230;2023-03-11T02:05:55;91430.13;;;6.31;100.00
10988;BME280;5547;42.672;23.230;2023-03-11T02:08:56;91464.03;;;6.46;100.00
10988;BME280;5547;42.672;23.230;2023-03-11T02:11:59;91452.50;;;6.40;100.00
10988;BME280;5547;42.672;23.230;2023-03-11T02:15:00;91408.03;;;6.00;100.00
10988;BME280;5547;42.672;23.230;2023-03-11T02:18:04;91452.19;;;6.25;100.00
10988;BME280;5547;42.672;23.230;2023-03-11T02:24:30;91486.72;;;6.18;100.00
10988;BME280;5547;42.672;23.230;2023-03-11T02:27:37;91492.44;;;6.42;100.00
10988;BME280;5547;42.672;23.230;2023-03-11T02:30:41;91465.06;;;6.10;100.00
10988;BME280;5547;42.672;23.230;2023-03-11T02:33:44;91475.88;;;6.28;100.00
10988;BME280;5547;42.672;23.230;2023-03-11T02:36:46;91478.59;;;6.38;100.00
10988;BME280;5547;42.672;23.230;2023-03-11T02:39:48;91439.94;;;6.44;100.00
10988;BME280;5547;42.672;23.230;2023-03-11T02:42:52;91519.91;;;7.08;100.00
10988;BME280;5547;42.672;23.230;2023-03-11T02:45:55;91521.41;;;6.97;100.00
10988;BME280;5547;42.672;23.230;2023-03-11T02:48:56;91525.63;;;6.94;100.00
10988;BME280;5547;42.672;23.230;2023-03-11T02:51:57;91516.19;;;6.93;100.00
10988;BME280;5547;42.672;23.230;2023-03-11T02:54:57;91517.28;;;6.96;100.00
10988;BME280;5547;42.672;23.230;2023-03-11T02:57:58;91505.34;;;6.91;100.00
10988;BME280;5547;42.672;23.230;2023-03-11T03:00:58;91483.03;;;6.79;100.00
10988;BME280;5547;42.672;23.230;2023-03-11T03:03:59;91501.19;;;6.90;100.00
10988;BME280;5547;42.672;23.230;2023-03-11T03:06:59;91484.41;;;6.84;100.00
10988;BME280;5547;42.672;23.230;2023-03-11T03:10:00;91501.44;;;6.83;100.00
10988;BME280;5547;42.672;23.230;2023-03-11T03:13:00;91465.09;;;6.61;100.00
10988;BME280;5547;42.672;23.230;2023-03-11T03:16:01;91471.22;;;6.71;100.00
10988;BME280;5547;42.672;23.230;2023-03-11T03:19:01;91511.34;;;7.04;100.00
10988;BME280;5547;42.672;23.230;2023-03-11T03:22:02;91430.66;;;6.39;100.00
10988;BME280;5547;42.672;23.230;2023-03-11T03:25:03;91444.69;;;6.49;100.00
10988;BME280;5547;42.672;23.230;2023-03-11T03:28:03;91513.78;;;6.99;100.00
10988;BME280;5547;42.672;23.230;2023-03-11T03:31:06;91525.41;;;7.01;100.00
10988;BME280;5547;42.672;23.230;2023-03-11T03:34:07;91526.78;;;7.06;100.00
10988;BME280;5547;42.672;23.230;2023-03-11T03:37:08;91513.97;;;7.17;100.00
10988;BME280;5547;42.672;23.230;2023-03-11T03:40:09;91496.00;;;6.99;100.00
10988;BME280;5547;42.672;23.230;2023-03-11T03:43:09;91479.00;;;6.87;100.00
10988;BME280;5547;42.672;23.230;2023-03-11T03:46:10;91468.53;;;6.84;100.00
10988;BME280;5547;42.672;23.230;2023-03-11T03:49:10;91512.16;;;7.27;100.00
10988;BME280;5547;42.672;23.230;2023-03-11T03:52:11;91469.47;;;7.03;100.00
10988;BME280;5547;42.672;23.230;2023-03-11T03:55:11;91497.78;;;7.28;100.00
10988;BME280;5547;42.672;23.230;2023-03-11T03:58:11;91501.97;;;7.38;100.00
10988;BME280;5547;42.672;23.230;2023-03-11T04:01:13;91528.72;;;7.40;100.00
10988;BME280;5547;42.672;23.230;2023-03-11T04:04:13;91515.50;;;7.40;100.00
10988;BME280;5547;42.672;23.230;2023-03-11T04:07:14;91517.84;;;7.38;100.00
10988;BME280;5547;42.672;23.230;2023-03-11T04:10:14;91494.03;;;7.38;100.00
10988;BME280;5547;42.672;23.230;2023-03-11T04:13:15;91463.84;;;7.13;100.00
10988;BME280;5547;42.672;23.230;2023-03-11T04:16:18;91499.56;;;7.31;100.00
10988;BME280;5547;42.672;23.230;2023-03-11T04:19:18;91444.75;;;6.84;100.00
10988;BME280;5547;42.672;23.230;2023-03-11T04:22:19;91425.97;;;6.69;100.00
10988;BME280;5547;42.672;23.230;2023-03-11T04:25:19;91473.69;;;7.13;100.00
10988;BME280;5547;42.672;23.230;2023-03-11T04:28:21;91491.63;;;7.18;100.00
10988;BME280;5547;42.672;23.230;2023-03-11T04:31:21;91511.75;;;7.63;100.00
10988;BME280;5547;42.672;23.230;2023-03-11T04:34:22;91512.50;;;7.51;100.00
10988;BME280;5547;42.672;23.230;2023-03-11T04:37:26;91517.91;;;7.47;100.00
10988;BME280;5547;42.672;23.230;2023-03-11T04:40:27;91510.53;;;7.42;100.00
10988;BME280;5547;42.672;23.230;2023-03-11T04:43:28;91513.19;;;7.42;100.00
10988;BME280;5547;42.672;23.230;2023-03-11T04:46:28;91517.72;;;7.42;100.00
10988;BME280;5547;42.672;23.230;2023-03-11T04:49:29;91522.72;;;7.40;100.00
10988;BME280;5547;42.672;23.230;2023-03-11T04:52:29;91516.25;;;7.41;100.00
10988;BME280;5547;42.672;23.230;2023-03-11T04:55:30;91489.84;;;7.28;100.00
10988;BME280;5547;42.672;23.230;2023-03-11T04:58:30;91511.66;;;7.54;100.00
10988;BME280;5547;42.672;23.230;2023-03-11T05:01:31;91533.00;;;7.60;100.00
10988;BME280;5547;42.672;23.230;2023-03-11T05:04:32;91529.22;;;7.48;100.00
10988;BME280;5547;42.672;23.230;2023-03-11T05:07:32;91546.88;;;7.64;99.98
10988;BME280;5547;42.672;23.230;2023-03-11T05:10:33;91544.53;;;7.66;100.00
10988;BME280;5547;42.672;23.230;2023-03-11T05:13:34;91517.44;;;7.27;100.00
10988;BME280;5547;42.672;23.230;2023-03-11T05:16:34;91540.44;;;7.52;100.00
10988;BME280;5547;42.672;23.230;2023-03-11T05:19:35;91569.94;;;7.63;100.00
10988;BME280;5547;42.672;23.230;2023-03-11T05:22:36;91574.78;;;7.65;100.00
10988;BME280;5547;42.672;23.230;2023-03-11T05:25:37;91569.31;;;7.59;100.00
10988;BME280;5547;42.672;23.230;2023-03-11T05:28:37;91562.25;;;7.56;100.00
10988;BME280;5547;42.672;23.230;2023-03-11T05:31:38;91576.91;;;7.70;100.00
10988;BME280;5547;42.672;23.230;2023-03-11T05:34:39;91585.91;;;7.72;100.00
10988;BME280;5547;42.672;23.230;2023-03-11T05:37:39;91585.91;;;7.72;100.00
10988;BME280;5547;42.672;23.230;2023-03-11T05:40:40;91589.91;;;7.77;100.00
10988;BME280;5547;42.672;23.230;2023-03-11T05:43:40;91547.78;;;7.35;100.00
10988;BME280;5547;42.672;23.230;2023-03-11T05:46:41;91571.47;;;7.51;100.00
10988;BME280;5547;42.672;23.230;2023-03-11T05:49:42;91585.81;;;7.63;100.00
10988;BME280;5547;42.672;23.230;2023-03-11T05:52:42;91590.28;;;7.53;100.00
10988;BME280;5547;42.672;23.230;2023-03-11T05:55:43;91581.50;;;7.56;100.00
10988;BME280;5547;42.672;23.230;2023-03-11T05:58:43;91599.06;;;7.50;100.00
10988;BME280;5547;42.672;23.230;2023-03-11T06:01:44;91608.81;;;7.53;100.00
10988;BME280;5547;42.672;23.230;2023-03-11T06:04:44;91593.34;;;7.39;100.00
10988;BME280;5547;42.672;23.230;2023-03-11T06:07:45;91616.44;;;7.51;100.00
10988;BME280;5547;42.672;23.230;2023-03-11T06:10:45;91617.28;;;7.35;100.00
10988;BME280;5547;42.672;23.230;2023-03-11T06:13:46;91590.75;;;7.13;100.00
10988;BME280;5547;42.672;23.230;2023-03-11T06:16:47;91611.13;;;7.39;100.00
10988;BME280;5547;42.672;23.230;2023-03-11T06:19:47;91616.34;;;7.42;100.00
10988;BME280;5547;42.672;23.230;2023-03-11T06:22:48;91620.97;;;7.38;100.00
10988;BME280;5547;42.672;23.230;2023-03-11T06:25:59;91582.91;;;7.23;100.00
10988;BME280;5547;42.672;23.230;2023-03-11T06:29:00;91579.44;;;7.26;100.00
10988;BME280;5547;42.672;23.230;2023-03-11T06:32:01;91567.69;;;7.14;100.00
10988;BME280;5547;42.672;23.230;2023-03-11T06:35:02;91583.44;;;7.30;100.00
10988;BME280;5547;42.672;23.230;2023-03-11T06:38:03;91588.50;;;7.25;100.00
10988;BME280;5547;42.672;23.230;2023-03-11T06:41:05;91559.34;;;7.15;100.00
10988;BME280;5547;42.672;23.230;2023-03-11T06:44:05;91615.47;;;7.45;100.00
10988;BME280;5547;42.672;23.230;2023-03-11T06:47:06;91567.69;;;7.27;100.00
10988;BME280;5547;42.672;23.230;2023-03-11T06:50:07;91618.53;;;7.56;100.00
10988;BME280;5547;42.672;23.230;2023-03-11T06:53:08;91614.38;;;7.55;100.00
10988;BME280;5547;42.672;23.230;2023-03-11T06:56:12;91633.97;;;7.71;100.00
10988;BME280;5547;42.672;23.230;2023-03-11T06:59:14;91633.50;;;7.85;100.00
10988;BME280;5547;42.672;23.230;2023-03-11T07:02:14;91653.47;;;8.12;100.00
10988;BME280;5547;42.672;23.230;2023-03-11T07:05:16;91637.31;;;8.19;100.00
10988;BME280;5547;42.672;23.230;2023-03-11T07:08:17;91624.25;;;8.25;100.00
10988;BME280;5547;42.672;23.230;2023-03-11T07:11:22;91630.25;;;8.38;100.00
10988;BME280;5547;42.672;23.230;2023-03-11T07:14:23;91569.94;;;7.98;100.00
10988;BME280;5547;42.672;23.230;2023-03-11T07:17:24;91593.16;;;8.51;99.95
10988;BME280;5547;42.672;23.230;2023-03-11T07:20:25;91616.75;;;8.89;99.46
10988;BME280;5547;42.672;23.230;2023-03-11T07:23:26;91610.56;;;8.83;97.68
10988;BME280;5547;42.672;23.230;2023-03-11T07:26:28;91619.19;;;8.74;96.14
10988;BME280;5547;42.672;23.230;2023-03-11T07:29:29;91620.25;;;8.55;97.08
10988;BME280;5547;42.672;23.230;2023-03-11T07:32:29;91609.88;;;8.48;95.85
10988;BME280;5547;42.672;23.230;2023-03-11T07:35:30;91549.81;;;8.00;94.86
10988;BME280;5547;42.672;23.230;2023-03-11T07:38:30;91598.44;;;8.51;96.19
10988;BME280;5547;42.672;23.230;2023-03-11T07:41:33;91558.00;;;8.37;95.46
10988;BME280;5547;42.672;23.230;2023-03-11T07:44:34;91591.13;;;8.86;95.38
10988;BME280;5547;42.672;23.230;2023-03-11T07:47:35;91590.47;;;9.04;91.76
10988;BME280;5547;42.672;23.230;2023-03-11T07:50:35;91546.28;;;9.10;89.63
10988;BME280;5547;42.672;23.230;2023-03-11T07:53:36;91579.78;;;10.03;90.33
10988;BME280;5547;42.672;23.230;2023-03-11T07:56:37;91537.28;;;10.13;83.14
10988;BME280;5547;42.672;23.230;2023-03-11T07:59:37;91557.94;;;10.55;81.92
10988;BME280;5547;42.672;23.230;2023-03-11T08:02:38;91564.56;;;10.59;77.48
10988;BME280;5547;42.672;23.230;2023-03-11T08:05:38;91503.88;;;10.48;81.93
10988;BME280;5547;42.672;23.230;2023-03-11T08:08:39;91562.19;;;10.70;78.34
10988;BME280;5547;42.672;23.230;2023-03-11T08:11:40;91537.47;;;10.88;80.25
10988;BME280;5547;42.672;23.230;2023-03-11T08:14:41;91549.13;;;11.24;77.42
10988;BME280;5547;42.672;23.230;2023-03-11T08:17:43;91538.97;;;11.47;78.04
10988;BME280;5547;42.672;23.230;2023-03-11T08:20:43;91486.94;;;10.88;77.06
10988;BME280;5547;42.672;23.230;2023-03-11T08:23:45;91497.91;;;10.72;74.43
10988;BME280;5547;42.672;23.230;2023-03-11T08:26:45;91533.34;;;10.78;74.31
10988;BME280;5547;42.672;23.230;2023-03-11T08:29:46;91531.97;;;10.92;74.66
10988;BME280;5547;42.672;23.230;2023-03-11T08:32:47;91527.06;;;11.00;74.60
10988;BME280;5547;42.672;23.230;2023-03-11T08:35:48;91524.84;;;11.31;76.53
10988;BME280;5547;42.672;23.230;2023-03-11T08:38:49;91512.63;;;11.49;75.49
10988;BME280;5547;42.672;23.230;2023-03-11T08:41:50;91512.19;;;11.74;73.45
10988;BME280;5547;42.672;23.230;2023-03-11T08:44:50;91443.25;;;11.04;71.93
10988;BME280;5547;42.672;23.230;2023-03-11T08:47:51;91502.81;;;11.55;71.15
10988;BME280;5547;42.672;23.230;2023-03-11T08:50:51;91519.03;;;11.42;70.67
10988;BME280;5547;42.672;23.230;2023-03-11T08:53:52;91511.25;;;11.29;70.76
10988;BME280;5547;42.672;23.230;2023-03-11T08:56:53;91481.59;;;11.46;71.40
10988;BME280;5547;42.672;23.230;2023-03-11T08:59:53;91512.97;;;11.90;71.35
10988;BME280;5547;42.672;23.230;2023-03-11T09:02:54;91489.56;;;11.46;69.84
10988;BME280;5547;42.672;23.230;2023-03-11T09:05:58;91493.59;;;11.41;70.89
10988;BME280;5547;42.672;23.230;2023-03-11T09:08:59;91465.19;;;11.23;72.41
10988;BME280;5547;42.672;23.230;2023-03-11T09:12:00;91508.16;;;11.31;71.92
10988;BME280;5547;42.672;23.230;2023-03-11T09:15:00;91489.56;;;11.46;74.09
10988;BME280;5547;42.672;23.230;2023-03-11T09:18:01;91469.69;;;11.08;76.69
10988;BME280;5547;42.672;23.230;2023-03-11T09:21:02;91491.94;;;10.96;74.45
10988;BME280;5547;42.672;23.230;2023-03-11T09:24:03;91486.84;;;11.31;75.49
10988;BME280;5547;42.672;23.230;2023-03-11T09:27:04;91488.50;;;11.76;75.07
10988;BME280;5547;42.672;23.230;2023-03-11T09:30:05;91482.53;;;12.21;70.85
10988;BME280;5547;42.672;23.230;2023-03-11T09:33:07;91439.13;;;12.35;72.32
10988;BME280;5547;42.672;23.230;2023-03-11T09:36:11;91422.41;;;12.19;69.84
10988;BME280;5547;42.672;23.230;2023-03-11T09:39:12;91477.53;;;12.88;65.50
10988;BME280;5547;42.672;23.230;2023-03-11T09:42:19;91477.66;;;13.14;65.68
10988;BME280;5547;42.672;23.230;2023-03-11T09:45:26;91461.91;;;12.66;65.85
10988;BME280;5547;42.672;23.230;2023-03-11T09:48:32;91485.09;;;12.74;63.67
10988;BME280;5547;42.672;23.230;2023-03-11T09:51:41;91491.00;;;13.14;64.57
10988;BME280;5547;42.672;23.230;2023-03-11T09:54:47;91496.44;;;13.04;61.22
10988;BME280;5547;42.672;23.230;2023-03-11T09:57:48;91494.09;;;12.92;61.08
10988;BME280;5547;42.672;23.230;2023-03-11T10:00:50;91456.19;;;12.88;59.54
10988;BME280;5547;42.672;23.230;2023-03-11T10:03:56;91461.84;;;12.95;58.97
10988;BME280;5547;42.672;23.230;2023-03-11T10:07:00;91471.31;;;12.46;59.03
10988;BME280;5547;42.672;23.230;2023-03-11T10:10:02;91495.72;;;12.89;60.61
10988;BME280;5547;42.672;23.230;2023-03-11T10:13:44;91493.16;;;12.80;59.89
10988;BME280;5547;42.672;23.230;2023-03-11T10:20:19;91492.81;;;12.43;60.23
10988;BME280;5547;42.672;23.230;2023-03-11T10:26:43;91497.47;;;13.42;59.63
10988;BME280;5547;42.672;23.230;2023-03-11T10:30:02;91479.47;;;12.87;56.57
10988;BME280;5547;42.672;23.230;2023-03-11T10:33:20;91500.53;;;12.70;58.07
10988;BME280;5547;42.672;23.230;2023-03-11T10:36:26;91499.72;;;12.49;58.83
10988;BME280;5547;42.672;23.230;2023-03-11T10:39:32;91503.59;;;11.94;59.94
10988;BME280;5547;42.672;23.230;2023-03-11T10:42:34;91502.25;;;11.75;57.89
10988;BME280;5547;42.672;23.230;2023-03-11T10:45:40;91475.97;;;11.68;58.17
10988;BME280;5547;42.672;23.230;2023-03-11T10:48:43;91442.44;;;10.89;60.92
10988;BME280;5547;42.672;23.230;2023-03-11T10:51:46;91506.13;;;11.26;69.31
10988;BME280;5547;42.672;23.230;2023-03-11T10:54:58;91488.44;;;10.80;68.82
10988;BME280;5547;42.672;23.230;2023-03-11T10:58:28;91498.31;;;11.46;69.68
10988;BME280;5547;42.672;23.230;2023-03-11T11:01:30;91488.91;;;11.60;67.86
10988;BME280;5547;42.672;23.230;2023-03-11T11:04:36;91500.59;;;12.02;66.59
10988;BME280;5547;42.672;23.230;2023-03-11T11:07:39;91503.88;;;12.50;64.31
10988;BME280;5547;42.672;23.230;2023-03-11T11:10:58;91459.81;;;12.10;64.54
10988;BME280;5547;42.672;23.230;2023-03-11T11:13:59;91471.13;;;12.50;64.20
10988;BME280;5547;42.672;23.230;2023-03-11T11:17:00;91468.44;;;11.66;65.22
10988;BME280;5547;42.672;23.230;2023-03-11T11:20:02;91448.69;;;11.58;68.72
10988;BME280;5547;42.672;23.230;2023-03-11T11:26:30;91475.59;;;11.60;77.35
10988;BME280;5547;42.672;23.230;2023-03-11T11:29:31;91466.03;;;11.68;75.78
10988;BME280;5547;42.672;23.230;2023-03-11T11:32:35;91422.22;;;11.93;72.94
10988;BME280;5547;42.672;23.230;2023-03-11T11:35:48;91451.06;;;11.95;72.99
10988;BME280;5547;42.672;23.230;2023-03-11T11:38:51;91445.28;;;11.96;68.36
10988;BME280;5547;42.672;23.230;2023-03-11T11:41:54;91437.94;;;12.06;69.44
10988;BME280;5547;42.672;23.230;2023-03-11T11:45:03;91435.81;;;12.55;63.16
10988;BME280;5547;42.672;23.230;2023-03-11T11:48:26;91423.97;;;12.91;60.95
10988;BME280;5547;42.672;23.230;2023-03-11T11:55:17;91430.00;;;13.07;57.16
10988;BME280;5547;42.672;23.230;2023-03-11T11:58:20;91397.81;;;12.95;57.02
10988;BME280;5547;42.672;23.230;2023-03-11T12:18:20;91401.44;;;12.92;56.22
10988;BME280;5547;42.672;23.230;2023-03-11T12:31:26;91407.91;;;14.14;55.22
10988;BME280;5547;42.672;23.230;2023-03-11T12:34:33;91414.28;;;13.96;57.10
10988;BME280;5547;42.672;23.230;2023-03-11T12:37:35;91399.34;;;13.37;57.94
10988;BME280;5547;42.672;23.230;2023-03-11T12:46:59;91424.47;;;12.75;60.74
10988;BME280;5547;42.672;23.230;2023-03-11T12:50:35;91431.97;;;12.26;65.40
10988;BME280;5547;42.672;23.230;2023-03-11T12:53:47;91420.59;;;12.11;65.48
10988;BME280;5547;42.672;23.230;2023-03-11T13:03:33;91452.19;;;12.18;63.84
10988;BME280;5547;42.672;23.230;2023-03-11T13:06:52;91456.13;;;11.93;68.18
10988;BME280;5547;42.672;23.230;2023-03-11T13:13:41;91430.47;;;10.93;70.30
10988;BME280;5547;42.672;23.230;2023-03-11T13:16:42;91485.81;;;11.04;68.87
10988;BME280;5547;42.672;23.230;2023-03-11T13:19:50;91462.09;;;10.91;70.32
10988;BME280;5547;42.672;23.230;2023-03-11T13:43:00;91542.09;;;7.24;100.00
10988;BME280;5547;42.672;23.230;2023-03-11T13:46:10;91519.91;;;6.83;100.00
10988;BME280;5547;42.672;23.230;2023-03-11T13:52:46;91468.56;;;6.32;100.00
10988;BME280;5547;42.672;23.230;2023-03-11T13:55:48;91517.50;;;6.76;100.00
10988;BME280;5547;42.672;23.230;2023-03-11T13:58:49;91521.41;;;6.97;100.00
10988;BME280;5547;42.672;23.230;2023-03-11T14:01:53;91528.25;;;7.20;100.00
10988;BME280;5547;42.672;23.230;2023-03-11T14:05:01;91528.75;;;7.27;100.00
10988;BME280;5547;42.672;23.230;2023-03-11T14:08:32;91526.63;;;7.35;100.00
10988;BME280;5547;42.672;23.230;2023-03-11T14:11:34;91530.91;;;7.54;100.00
10988;BME280;5547;42.672;23.230;2023-03-11T14:17:42;91523.72;;;7.55;100.00
10988;BME280;5547;42.672;23.230;2023-03-11T14:20:46;91472.81;;;7.29;100.00
10988;BME280;5547;42.672;23.230;2023-03-11T14:23:49;91515.13;;;7.64;100.00
10988;BME280;5547;42.672;23.230;2023-03-11T14:26:50;91554.16;;;7.94;100.00
10988;BME280;5547;42.672;23.230;2023-03-11T14:29:54;91518.06;;;7.66;100.00
10988;BME280;5547;42.672;23.230;2023-03-11T14:33:04;91550.22;;;7.99;100.00
10988;BME280;5547;42.672;23.230;2023-03-11T14:36:09;91547.25;;;7.97;100.00
10988;BME280;5547;42.672;23.230;2023-03-11T14:42:40;91566.19;;;7.73;100.00
10988;BME280;5547;42.672;23.230;2023-03-11T14:45:42;91561.28;;;7.63;100.00
10988;BME280;5547;42.672;23.230;2023-03-11T14:48:42;91557.19;;;7.36;100.00
10988;BME280;5547;42.672;23.230;2023-03-11T14:51:43;91539.13;;;7.22;100.00
10988;BME280;5547;42.672;23.230;2023-03-11T14:54:45;91468.03;;;6.38;100.00
10988;BME280;5547;42.672;23.230;2023-03-11T14:58:05;91558.81;;;6.95;100.00
10988;BME280;5547;42.672;23.230;2023-03-11T15:01:25;91603.13;;;7.17;100.00
10988;BME280;5547;42.672;23.230;2023-03-11T15:04:31;91604.28;;;7.15;100.00
10988;BME280;5547;42.672;23.230;2023-03-11T15:07:35;91590.19;;;6.93;100.00
10988;BME280;5547;42.672;23.230;2023-03-11T15:10:36;91622.78;;;7.03;100.00
10988;BME280;5547;42.672;23.230;2023-03-11T15:13:39;91617.69;;;6.83;100.00
10988;BME280;5547;42.672;23.230;2023-03-11T15:16:40;91586.94;;;6.63;100.00
10988;BME280;5547;42.672;23.230;2023-03-11T15:19:41;91621.38;;;6.72;100.00
10988;BME280;5547;42.672;23.230;2023-03-11T15:22:41;91634.78;;;6.65;100.00
10988;BME280;5547;42.672;23.230;2023-03-11T15:25:47;91644.28;;;6.63;100.00
10988;BME280;5547;42.672;23.230;2023-03-11T15:28:54;91653.47;;;6.58;100.00
10988;BME280;5547;42.672;23.230;2023-03-11T15:31:57;91655.97;;;6.49;100.00
10988;BME280;5547;42.672;23.230;2023-03-11T15:35:00;91671.81;;;6.49;100.00
10988;BME280;5547;42.672;23.230;2023-03-11T15:38:23;91679.53;;;6.43;100.00
10988;BME280;5547;42.672;23.230;2023-03-11T15:41:24;91691.56;;;6.44;100.00
10988;BME280;5547;42.672;23.230;2023-03-11T15:47:32;91694.66;;;6.26;100.00
10988;BME280;5547;42.672;23.230;2023-03-11T15:50:32;91679.94;;;5.96;100.00
10988;BME280;5547;42.672;23.230;2023-03-11T15:53:34;91721.88;;;6.23;100.00
10988;BME280;5547;42.672;23.230;2023-03-11T15:56:35;91716.03;;;5.66;100.00
10988;BME280;5547;42.672;23.230;2023-03-11T15:59:36;91745.44;;;5.65;100.00
10988;BME280;5547;42.672;23.230;2023-03-11T16:02:37;91751.53;;;5.45;100.00
10988;BME280;5547;42.672;23.230;2023-03-11T16:05:37;91748.09;;;5.29;100.00
10988;BME280;5547;42.672;23.230;2023-03-11T16:08:38;91748.97;;;5.22;100.00
10988;BME280;5547;42.672;23.230;2023-03-11T16:11:39;91743.59;;;5.09;100.00
10988;BME280;5547;42.672;23.230;2023-03-11T16:14:40;91771.03;;;5.12;100.00
10988;BME280;5547;42.672;23.230;2023-03-11T16:17:41;91756.72;;;4.73;100.00
10988;BME280;5547;42.672;23.230;2023-03-11T16:20:45;91730.66;;;4.58;100.00
10988;BME280;5547;42.672;23.230;2023-03-11T16:23:46;91783.56;;;4.64;100.00
10988;BME280;5547;42.672;23.230;2023-03-11T16:26:47;91786.59;;;4.19;100.00
10988;BME280;5547;42.672;23.230;2023-03-11T16:29:50;91805.50;;;4.10;100.00
10988;BME280;5547;42.672;23.230;2023-03-11T16:32:51;91805.00;;;3.95;100.00
10988;BME280;5547;42.672;23.230;2023-03-11T16:35:51;91812.16;;;3.68;100.00
10988;BME280;5547;42.672;23.230;2023-03-11T16:38:52;91832.00;;;3.72;100.00
10988;BME280;5547;42.672;23.230;2023-03-11T16:41:52;91808.53;;;3.27;100.00
10988;BME280;5547;42.672;23.230;2023-03-11T16:44:52;91807.72;;;3.00;100.00
10988;BME280;5547;42.672;23.230;2023-03-11T16:47:53;91861.91;;;3.21;100.00
10988;BME280;5547;42.672;23.230;2023-03-11T16:50:53;91878.47;;;3.14;100.00
10988;BME280;5547;42.672;23.230;2023-03-11T16:53:54;91826.56;;;2.57;100.00
10988;BME280;5547;42.672;23.230;2023-03-11T16:56:54;91878.13;;;2.74;100.00
10988;BME280;5547;42.672;23.230;2023-03-11T16:59:54;91863.31;;;2.57;100.00
10988;BME280;5547;42.672;23.230;2023-03-11T17:02:55;91922.63;;;2.88;100.00
10988;BME280;5547;42.672;23.230;2023-03-11T17:06:02;91918.19;;;2.82;100.00
10988;BME280;5547;42.672;23.230;2023-03-11T17:09:03;91931.00;;;2.76;100.00
10988;BME280;5547;42.672;23.230;2023-03-11T17:12:04;91939.34;;;2.64;100.00
10988;BME280;5547;42.672;23.230;2023-03-11T17:15:05;91957.06;;;2.52;100.00
10988;BME280;5547;42.672;23.230;2023-03-11T17:18:06;91968.41;;;2.39;100.00
10988;BME280;5547;42.672;23.230;2023-03-11T17:21:09;91978.13;;;2.42;100.00
10988;BME280;5547;42.672;23.230;2023-03-11T17:24:10;91976.31;;;2.28;100.00
10988;BME280;5547;42.672;23.230;2023-03-11T17:27:11;91988.34;;;2.29;100.00
10988;BME280;5547;42.672;23.230;2023-03-11T17:30:12;91934.56;;;1.88;100.00
10988;BME280;5547;42.672;23.230;2023-03-11T17:33:13;91970.84;;;2.08;100.00
10988;BME280;5547;42.672;23.230;2023-03-11T17:36:15;91999.56;;;2.26;100.00
10988;BME280;5547;42.672;23.230;2023-03-11T17:39:15;92012.34;;;2.20;100.00
10988;BME280;5547;42.672;23.230;2023-03-11T17:42:16;92001.56;;;2.04;100.00